createdAt,value
2024-03-03T00:00:47.916Z,85.92
2024-03-03T00:05:17.839Z,85.90
2024-03-03T00:09:25.868Z,85.94
2024-03-03T00:13:34.220Z,86.22
2024-03-03T00:17:42.619Z,86.07
2024-03-03T00:21:50.846Z,86.22
2024-03-03T00:25:58.523Z,86.20
2024-03-03T00:30:06.550Z,86.15
2024-03-03T00:34:14.645Z,86.12
2024-03-03T00:38:22.716Z,86.40
2024-03-03T00:42:30.847Z,85.82
2024-03-03T00:46:39.094Z,85.91
2024-03-03T00:50:47.183Z,86.09
2024-03-03T00:54:55.174Z,86.01
2024-03-03T00:59:03.428Z,85.90
2024-03-03T01:03:11.249Z,86.54
2024-03-03T01:07:19.227Z,86.40
2024-03-03T01:11:28.066Z,86.45
2024-03-03T01:15:35.750Z,86.74
2024-03-03T01:19:43.764Z,86.52
2024-03-03T01:23:52.622Z,86.62
2024-03-03T01:28:00.365Z,86.24
2024-03-03T01:32:10.149Z,86.15
2024-03-03T01:36:17.906Z,86.11
2024-03-03T01:40:26.912Z,85.97
2024-03-03T01:44:35.216Z,86.11
2024-03-03T01:48:43.863Z,86.17
2024-03-03T01:52:52.727Z,86.24
2024-03-03T01:57:02.030Z,86.25
2024-03-03T02:01:10.699Z,86.24
2024-03-03T02:05:19.218Z,85.71
2024-03-03T02:09:28.079Z,85.96
2024-03-03T02:13:35.895Z,86.11
2024-03-03T02:17:44.085Z,85.47
2024-03-03T02:21:51.576Z,85.12
2024-03-03T02:25:59.792Z,85.42
2024-03-03T02:30:09.524Z,85.76
2024-03-03T02:34:17.256Z,85.34
2024-03-03T02:38:25.548Z,85.46
2024-03-03T02:42:36.359Z,85.62
2024-03-03T02:46:44.683Z,85.64
2024-03-03T02:50:52.860Z,85.57
2024-03-03T02:55:00.640Z,85.26
2024-03-03T02:59:08.736Z,85.73
2024-03-03T03:03:17.759Z,85.40
2024-03-03T03:07:26.009Z,85.35
2024-03-03T03:11:34.428Z,85.60
2024-03-03T03:15:42.409Z,85.44
2024-03-03T03:19:50.996Z,85.54
2024-03-03T03:23:58.858Z,85.55
2024-03-03T03:28:08.519Z,85.83
2024-03-03T03:32:16.083Z,86.25
2024-03-03T03:36:23.737Z,86.36
2024-03-03T03:40:41.341Z,86.55
2024-03-03T03:44:49.360Z,86.56
2024-03-03T03:48:57.146Z,86.75
2024-03-03T03:53:04.763Z,87.04
2024-03-03T03:57:12.954Z,86.50
2024-03-03T04:01:22.798Z,86.38
2024-03-03T04:05:31.020Z,86.34
2024-03-03T04:09:38.811Z,86.59
2024-03-03T04:13:47.457Z,86.58
2024-03-03T04:17:55.402Z,86.82
2024-03-03T04:22:02.946Z,86.84
2024-03-03T04:26:11.870Z,86.70
2024-03-03T04:30:19.820Z,86.96
2024-03-03T04:34:30.918Z,86.61
2024-03-03T04:38:41.690Z,86.64
2024-03-03T04:42:50.867Z,86.57
2024-03-03T04:46:58.817Z,86.67
2024-03-03T04:51:07.815Z,86.62
2024-03-03T04:55:16.164Z,86.96
2024-03-03T04:59:24.176Z,87.12
2024-03-03T05:03:32.887Z,87.03
2024-03-03T05:07:40.793Z,87.27
2024-03-03T05:11:48.595Z,87.41
2024-03-03T05:15:56.439Z,87.67
2024-03-03T05:20:04.091Z,87.59
2024-03-03T05:24:11.954Z,87.46
2024-03-03T05:28:19.394Z,87.36
2024-03-03T05:32:27.087Z,87.47
2024-03-03T05:36:38.276Z,87.60
2024-03-03T05:40:46.237Z,87.57
2024-03-03T05:44:54.675Z,87.81
2024-03-03T05:49:03.780Z,88.05
2024-03-03T05:53:11.620Z,88.19
2024-03-03T05:57:19.157Z,88.44
2024-03-03T06:01:26.450Z,88.65
2024-03-03T06:05:34.695Z,88.93
2024-03-03T06:09:43.405Z,89.06
2024-03-03T06:13:51.371Z,88.96
2024-03-03T06:17:59.011Z,88.52
2024-03-03T06:22:09.960Z,88.55
2024-03-03T06:26:20.629Z,88.60
2024-03-03T06:30:30.925Z,88.63
2024-03-03T06:34:39.719Z,88.68
2024-03-03T06:38:47.165Z,88.85
2024-03-03T06:42:56.598Z,88.77
2024-03-03T06:47:04.227Z,89.01
2024-03-03T06:51:12.710Z,88.84
2024-03-03T06:55:20.682Z,88.75
2024-03-03T06:59:28.744Z,88.58
2024-03-03T07:04:09.488Z,88.76
2024-03-03T07:08:17.657Z,88.19
2024-03-03T07:12:25.320Z,87.81
2024-03-03T07:16:33.949Z,87.36
2024-03-03T07:20:41.944Z,87.20
2024-03-03T07:24:50.696Z,87.11
2024-03-03T07:28:58.324Z,87.10
2024-03-03T07:33:06.858Z,87.01
2024-03-03T07:37:14.776Z,86.99
2024-03-03T07:41:23.278Z,86.83
2024-03-03T07:45:30.842Z,87.07
2024-03-03T07:49:38.945Z,86.73
2024-03-03T07:53:50.586Z,86.59
2024-03-03T07:57:58.809Z,86.70
2024-03-03T08:02:07.909Z,86.34
2024-03-03T08:06:16.016Z,86.38
2024-03-03T08:10:23.984Z,86.18
2024-03-03T08:14:31.732Z,85.83
2024-03-03T08:18:39.551Z,86.19
2024-03-03T08:22:47.324Z,85.96
2024-03-03T08:26:54.873Z,85.91
2024-03-03T08:31:03.042Z,85.70
2024-03-03T08:35:12.066Z,84.92
2024-03-03T08:39:21.467Z,85.08
2024-03-03T08:43:29.546Z,85.05
2024-03-03T08:47:37.945Z,84.71
2024-03-03T08:51:47.070Z,84.42
2024-03-03T08:55:55.503Z,83.67
2024-03-03T09:00:04.631Z,83.20
2024-03-03T09:04:14.099Z,82.96
2024-03-03T09:08:21.620Z,82.12
2024-03-03T09:12:30.261Z,81.60
2024-03-03T09:16:39.201Z,81.42
2024-03-03T09:20:46.815Z,80.99
2024-03-03T09:24:54.809Z,80.22
2024-03-03T09:29:03.236Z,78.97
2024-03-03T09:33:12.195Z,78.13
2024-03-03T09:37:20.767Z,77.12
2024-03-03T09:41:28.571Z,76.28
2024-03-03T09:45:36.199Z,75.87
2024-03-03T09:49:45.548Z,75.31
2024-03-03T09:53:52.960Z,74.90
2024-03-03T09:58:02.406Z,74.73
2024-03-03T10:02:16.668Z,74.38
2024-03-03T10:06:26.149Z,74.23
2024-03-03T10:10:37.540Z,74.46
2024-03-03T10:14:46.082Z,74.20
2024-03-03T10:19:11.294Z,74.53
2024-03-03T10:23:25.973Z,74.25
2024-03-03T10:27:33.561Z,73.20
2024-03-03T10:31:41.286Z,73.22
2024-03-03T10:35:50.206Z,73.25
2024-03-03T10:39:58.584Z,73.30
2024-03-03T10:44:07.293Z,72.51
2024-03-03T10:48:14.812Z,72.45
2024-03-03T10:52:22.213Z,72.31
2024-03-03T10:56:30.511Z,72.09
2024-03-03T11:00:38.865Z,72.17
2024-03-03T11:04:47.132Z,71.64
2024-03-03T11:08:54.642Z,71.55
2024-03-03T11:13:05.267Z,71.29
2024-03-03T11:17:17.544Z,70.61
2024-03-03T11:21:31.209Z,70.41
2024-03-03T11:25:45.612Z,69.18
2024-03-03T11:29:53.973Z,69.16
2024-03-03T11:34:04.141Z,68.67
2024-03-03T11:38:13.637Z,68.36
2024-03-03T11:42:30.799Z,67.98
2024-03-03T11:46:51.395Z,67.47
2024-03-03T11:51:28.585Z,67.31
2024-03-03T11:55:39.741Z,67.14
2024-03-03T11:59:49.277Z,66.61
2024-03-03T12:03:57.999Z,66.43
2024-03-03T12:08:09.832Z,66.56
2024-03-03T12:12:17.472Z,65.95
2024-03-03T12:16:34.759Z,65.84
2024-03-03T12:20:45.526Z,65.73
2024-03-03T12:25:00.757Z,65.51
2024-03-03T12:29:10.465Z,65.88
2024-03-03T12:33:19.973Z,66.67
2024-03-03T12:37:29.903Z,66.02
2024-03-03T12:41:37.508Z,66.05
2024-03-03T12:45:48.425Z,66.04
2024-03-03T12:49:56.565Z,65.91
2024-03-03T12:54:05.507Z,65.11
2024-03-03T12:58:14.501Z,64.57
2024-03-03T13:02:22.108Z,64.44
2024-03-03T13:06:31.612Z,64.68
2024-03-03T13:10:40.747Z,64.52
2024-03-03T13:14:53.214Z,64.60
2024-03-03T13:19:05.703Z,64.80
2024-03-03T13:23:16.255Z,64.61
2024-03-03T13:27:23.597Z,64.72
2024-03-03T13:31:31.025Z,64.45
2024-03-03T13:35:40.099Z,64.70
2024-03-03T13:39:47.932Z,64.56
2024-03-03T13:43:55.705Z,64.67
2024-03-03T13:48:06.865Z,64.40
2024-03-03T13:52:15.349Z,64.37
2024-03-03T13:56:23.059Z,63.95
2024-03-03T14:00:31.166Z,63.93
2024-03-03T14:04:38.932Z,63.82
2024-03-03T14:08:47.301Z,63.90
2024-03-03T14:12:55.406Z,63.96
2024-03-03T14:17:03.563Z,63.87
2024-03-03T14:21:11.715Z,64.01
2024-03-03T14:25:19.908Z,64.32
2024-03-03T14:29:27.602Z,64.84
2024-03-03T14:33:35.736Z,64.66
2024-03-03T14:37:43.198Z,64.27
2024-03-03T14:41:51.397Z,64.41
2024-03-03T14:45:59.962Z,64.42
2024-03-03T14:50:10.338Z,64.35
2024-03-03T14:54:18.439Z,64.71
2024-03-03T14:58:26.488Z,64.77
2024-03-03T15:02:34.106Z,65.08
2024-03-03T15:06:41.944Z,65.11
2024-03-03T15:10:50.004Z,65.18
2024-03-03T15:14:59.333Z,65.08
2024-03-03T15:19:07.755Z,64.97
2024-03-03T15:23:15.809Z,64.70
2024-03-03T15:27:23.981Z,64.70
2024-03-03T15:31:32.086Z,64.81
2024-03-03T15:35:40.070Z,65.02
2024-03-03T15:39:47.853Z,65.45
2024-03-03T15:43:55.852Z,65.14
2024-03-03T15:48:05.457Z,65.49
2024-03-03T15:52:15.764Z,65.43
2024-03-03T15:56:23.811Z,65.70
2024-03-03T16:00:31.914Z,65.71
2024-03-03T16:04:39.682Z,65.77
2024-03-03T16:08:47.440Z,65.81
2024-03-03T16:12:55.439Z,66.12
2024-03-03T16:17:05.079Z,65.95
2024-03-03T16:21:13.080Z,66.12
2024-03-03T16:25:20.642Z,66.40
2024-03-03T16:29:28.460Z,66.70
2024-03-03T16:33:36.118Z,66.87
2024-03-03T16:37:44.436Z,67.02
2024-03-03T16:41:53.473Z,67.21
2024-03-03T16:46:01.637Z,67.28
2024-03-03T16:50:10.942Z,67.30
2024-03-03T16:54:20.123Z,67.22
2024-03-03T16:58:28.390Z,67.22
2024-03-03T17:02:36.277Z,67.24
2024-03-03T17:06:47.085Z,67.30
2024-03-03T17:10:55.478Z,67.45
2024-03-03T17:15:10.894Z,67.51
2024-03-03T17:24:01.228Z,67.50
2024-03-03T17:28:09.739Z,67.72
2024-03-03T17:32:17.545Z,68.00
2024-03-03T17:36:26.393Z,67.76
2024-03-03T17:40:35.221Z,67.82
2024-03-03T17:44:43.275Z,68.12
2024-03-03T17:48:51.367Z,68.24
2024-03-03T17:52:59.045Z,67.89
2024-03-03T17:57:07.622Z,68.00
2024-03-03T18:01:15.421Z,68.21
2024-03-03T18:05:24.973Z,68.28
2024-03-03T18:09:33.816Z,68.45
2024-03-03T18:13:41.871Z,68.90
2024-03-03T18:17:49.961Z,69.16
2024-03-03T18:21:58.262Z,69.20
2024-03-03T18:26:06.865Z,69.52
2024-03-03T18:30:17.234Z,69.82
2024-03-03T18:34:25.164Z,69.90
2024-03-03T18:38:33.510Z,70.06
2024-03-03T18:42:47.141Z,70.25
2024-03-03T18:46:57.300Z,70.53
2024-03-03T18:51:06.839Z,70.95
2024-03-03T18:55:15.420Z,71.49
2024-03-03T18:59:23.976Z,71.55
2024-03-03T19:03:31.658Z,71.53
2024-03-03T19:07:40.475Z,71.63
2024-03-03T19:11:48.508Z,71.60
2024-03-03T19:15:57.126Z,71.82
2024-03-03T19:20:05.673Z,72.34
2024-03-03T19:24:13.737Z,72.45
2024-03-03T19:28:23.952Z,72.47
2024-03-03T19:32:33.198Z,72.61
2024-03-03T19:36:41.004Z,72.85
2024-03-03T19:40:51.174Z,73.04
2024-03-03T19:44:59.430Z,73.18
2024-03-03T19:49:08.222Z,73.60
2024-03-03T19:53:15.945Z,73.49
2024-03-03T19:57:23.637Z,73.59
2024-03-03T20:01:31.624Z,73.36
2024-03-03T20:05:39.961Z,73.71
2024-03-03T20:09:48.926Z,73.28
2024-03-03T20:13:57.083Z,73.37
2024-03-03T20:18:05.717Z,73.35
2024-03-03T20:22:13.491Z,73.58
2024-03-03T20:26:21.544Z,73.35
2024-03-03T20:30:29.466Z,73.22
2024-03-03T20:34:37.257Z,73.40
2024-03-03T20:38:48.814Z,73.47
2024-03-03T20:42:56.750Z,73.83
2024-03-03T20:47:05.077Z,74.00
2024-03-03T20:51:15.529Z,74.53
2024-03-03T20:55:23.807Z,74.51
2024-03-03T20:59:32.049Z,74.53
2024-03-03T21:03:40.525Z,74.50
2024-03-03T21:07:49.161Z,74.54
2024-03-03T21:11:57.030Z,74.59
2024-03-03T21:16:05.719Z,74.47
2024-03-03T21:20:15.160Z,74.75
2024-03-03T21:24:23.006Z,74.77
2024-03-03T21:28:31.502Z,74.50
2024-03-03T21:32:39.161Z,74.52
2024-03-03T21:36:47.116Z,74.88
2024-03-03T21:40:54.690Z,74.69
2024-03-03T21:45:02.845Z,74.77
2024-03-03T21:49:10.664Z,74.69
2024-03-03T21:53:19.103Z,74.54
2024-03-03T21:57:26.338Z,74.69
2024-03-03T22:01:36.245Z,74.80
2024-03-03T22:05:44.927Z,74.72
2024-03-03T22:09:53.314Z,74.92
2024-03-03T22:14:00.912Z,74.78
2024-03-03T22:18:12.896Z,74.74
2024-03-03T22:22:21.407Z,74.73
2024-03-03T22:26:31.058Z,74.57
2024-03-03T22:30:39.769Z,74.49
2024-03-03T22:34:47.603Z,74.41
2024-03-03T22:38:55.661Z,74.64
2024-03-03T22:43:03.742Z,74.27
2024-03-03T22:47:11.830Z,74.52
2024-03-03T22:51:20.370Z,74.44
2024-03-03T22:55:28.832Z,74.81
2024-03-03T22:59:37.256Z,74.65
2024-03-03T23:03:48.289Z,74.70
2024-03-03T23:07:56.630Z,75.02
2024-03-03T23:12:05.393Z,75.18
2024-03-03T23:16:13.207Z,74.96
2024-03-03T23:20:21.450Z,74.92
2024-03-03T23:24:29.581Z,75.41
2024-03-03T23:28:39.732Z,75.26
2024-03-03T23:32:48.118Z,75.41
2024-03-03T23:36:56.423Z,75.79
2024-03-03T23:41:04.373Z,75.60
2024-03-03T23:45:13.816Z,75.66
2024-03-03T23:49:21.875Z,76.01
2024-03-03T23:53:30.723Z,76.03
2024-03-03T23:57:39.638Z,75.73
